Hlavní strana
METAR-TAF:

METAR-TAF

Letiště :

Sveg, Švédsko

zeměpisná šířka: 62-02-52N, zeměpisná délka: 014-25-22E, výška: 359 m

Aktuální stav počasí

Zpráva byla vytvořena před 40 minutami, v 06:50 UTC
Západoseverozápadní vítr 13 kt, proměnlivý mezi západním a severoseverozápadním
Teplota 4°C
Vlhkost vzduchu 65%
Tlak 1009 hPa
Viditelnost 10 km a více

METAR: ESND 240650Z AUTO 30013KT 260V330 9999 FEW160/// 04/M02 Q1009

Čas: 09:30 (07:30 UTC)


TAF: chybějící

Stav a předpovědi počasí z více než 4 000 letišť (zprávy METAR a TAF).

Červené a žluté tečky na mapě představují dostupné meteorologické stanice.

Když kurzor umístíte na tečku, zobrazí se název stanice.

Pak kliknutím zobrazíte stav a předpověď počasí.

Chcete-li změnit mapu, kliknutím na zelené tlačítko se znaménkem +mapu přiblížíte, kliknutím na zelené tlačítko se znaménkem – mapu oddálíte a kliknutím na zelené šipky přejdete na sousední mapy.


METAR-TAF: